Time;durP1;ratioP1;P1;durP2;ratioP2;P2;SDS_P1;SDS_P2;PMS_P1;PMS_P2;Temp;Humidity;BMP_temperature;BMP_pressure;BME280_temperature;BME280_humidity;BME280_pressure;Samples;Min_cycle;Max_cycle;Signal;HPM_P1;HPM_P2
2024/01/06 00:01:32;;;;;;;19.07;9.73;;;4.80;99.90;;;;;;4964576;28;20450;-72
2024/01/06 00:04:00;;;;;;;18.70;9.27;;;4.90;99.90;;;;;;4967278;28;20497;-71
2024/01/06 00:06:28;;;;;;;18.73;10.20;;;5.00;99.90;;;;;;4966076;28;20799;-71
2024/01/06 00:08:57;;;;;;;19.07;9.30;;;5.00;99.90;;;;;;4969731;28;20452;-71
2024/01/06 00:11:25;;;;;;;19.30;9.60;;;5.00;99.90;;;;;;4965849;28;20459;-72
2024/01/06 00:13:53;;;;;;;21.40;10.73;;;4.90;99.90;;;;;;4964055;28;20567;-72
2024/01/06 00:16:22;;;;;;;15.70;8.03;;;4.90;99.90;;;;;;4964965;28;20478;-71
2024/01/06 00:18:52;;;;;;;14.23;6.43;;;4.80;99.90;;;;;;4969150;28;20448;-71
2024/01/06 00:21:20;;;;;;;15.23;7.67;;;4.90;99.90;;;;;;4961384;28;20456;-71
2024/01/06 00:23:48;;;;;;;15.47;7.63;;;4.80;99.90;;;;;;4964372;28;20494;-71
2024/01/06 00:26:17;;;;;;;14.70;7.17;;;4.80;99.90;;;;;;4961158;28;20443;-71
2024/01/06 00:28:47;;;;;;;14.93;6.40;;;4.70;99.90;;;;;;4965094;28;21139;-72
2024/01/06 00:31:15;;;;;;;14.83;6.90;;;4.70;99.90;;;;;;4964414;28;21010;-70
2024/01/06 00:33:44;;;;;;;15.27;6.30;;;4.70;99.90;;;;;;4964862;28;20486;-71
2024/01/06 00:36:12;;;;;;;16.00;7.53;;;4.70;99.90;;;;;;4964872;28;20456;-71
2024/01/06 00:38:40;;;;;;;16.70;7.17;;;4.70;99.90;;;;;;4957806;28;20455;-71
2024/01/06 00:41:08;;;;;;;14.37;5.63;;;4.80;99.90;;;;;;4964548;28;20738;-70
2024/01/06 00:43:37;;;;;;;12.00;4.53;;;4.80;99.90;;;;;;4964483;28;20533;-71
2024/01/06 00:46:05;;;;;;;12.83;5.30;;;4.80;99.90;;;;;;4964793;28;20461;-71
2024/01/06 00:48:33;;;;;;;10.17;3.93;;;4.80;99.90;;;;;;4964698;28;20998;-72
2024/01/06 00:51:01;;;;;;;10.77;3.40;;;4.90;99.90;;;;;;4960880;28;20451;-71
2024/01/06 00:53:29;;;;;;;9.60;3.63;;;4.90;99.90;;;;;;4966469;28;20559;-71
2024/01/06 00:55:57;;;;;;;14.63;4.03;;;4.90;99.90;;;;;;4965699;28;20537;-70
2024/01/06 00:58:25;;;;;;;12.20;4.30;;;4.80;99.90;;;;;;4965125;28;20487;-71
2024/01/06 01:00:55;;;;;;;11.00;4.57;;;4.90;99.90;;;;;;4976082;28;20460;-72
2024/01/06 01:03:23;;;;;;;11.07;4.50;;;4.90;99.90;;;;;;4974068;28;20470;-73
2024/01/06 01:05:51;;;;;;;12.60;4.63;;;5.00;99.90;;;;;;4967527;28;20861;-73
2024/01/06 01:08:19;;;;;;;11.60;4.20;;;5.00;99.90;;;;;;4968749;28;20454;-73
2024/01/06 01:10:47;;;;;;;12.30;4.00;;;5.10;99.90;;;;;;4965064;28;20444;-71
2024/01/06 01:13:15;;;;;;;10.50;3.90;;;5.20;99.90;;;;;;4970281;28;20541;-72
2024/01/06 01:15:43;;;;;;;10.33;4.50;;;5.20;99.90;;;;;;4969828;28;20595;-71
2024/01/06 01:18:12;;;;;;;11.87;3.33;;;5.20;99.90;;;;;;4968228;28;20465;-71
2024/01/06 01:20:41;;;;;;;13.70;4.50;;;5.30;99.90;;;;;;4967413;28;20535;-70
2024/01/06 01:23:09;;;;;;;11.53;3.53;;;5.10;99.90;;;;;;4967116;28;20567;-71
2024/01/06 01:25:38;;;;;;;9.83;3.60;;;5.00;99.90;;;;;;4961127;28;20548;-71
2024/01/06 01:28:06;;;;;;;8.13;2.97;;;4.90;99.90;;;;;;4966906;28;20457;-72
2024/01/06 01:30:33;;;;;;;11.80;3.50;;;4.80;99.90;;;;;;4965119;28;20486;-70
2024/01/06 01:33:02;;;;;;;9.17;2.93;;;4.90;99.90;;;;;;4963033;28;20472;-72
2024/01/06 01:35:31;;;;;;;9.60;3.43;;;4.90;99.90;;;;;;4966719;28;20498;-72
2024/01/06 01:37:59;;;;;;;10.60;4.40;;;4.80;99.90;;;;;;4965274;28;20451;-71
2024/01/06 01:40:27;;;;;;;9.60;3.13;;;4.80;99.90;;;;;;4966752;28;20455;-71
2024/01/06 01:42:55;;;;;;;11.90;3.40;;;4.80;99.90;;;;;;4966591;28;20494;-71
2024/01/06 01:45:23;;;;;;;8.53;2.50;;;4.70;99.90;;;;;;4967190;28;20534;-72
2024/01/06 01:47:52;;;;;;;8.50;2.90;;;4.70;99.90;;;;;;4967063;28;20542;-71
2024/01/06 01:50:22;;;;;;;11.90;2.90;;;4.70;99.90;;;;;;4966575;28;20500;-71
2024/01/06 01:52:51;;;;;;;12.37;3.67;;;4.70;99.90;;;;;;4966578;28;20473;-71
2024/01/06 01:55:19;;;;;;;8.60;2.40;;;4.80;99.90;;;;;;4966939;28;20493;-71
2024/01/06 01:57:47;;;;;;;8.17;2.40;;;4.90;99.90;;;;;;4966622;28;20464;-71
2024/01/06 02:00:16;;;;;;;8.30;2.70;;;5.10;99.90;;;;;;4962771;28;20451;-71
2024/01/06 02:02:44;;;;;;;12.10;2.93;;;5.20;99.90;;;;;;4964760;28;20482;-71
2024/01/06 02:05:12;;;;;;;9.83;2.47;;;5.10;99.90;;;;;;4966147;28;20447;-70
2024/01/06 02:07:41;;;;;;;7.70;2.40;;;4.90;99.90;;;;;;4966851;28;20532;-71
2024/01/06 02:10:10;;;;;;;12.40;2.10;;;5.10;99.90;;;;;;4966522;28;20549;-71
2024/01/06 02:12:38;;;;;;;7.70;1.63;;;5.20;99.90;;;;;;4966863;28;20613;-71
2024/01/06 02:15:08;;;;;;;9.13;1.87;;;5.30;99.90;;;;;;4966109;28;20936;-70
2024/01/06 02:17:36;;;;;;;9.63;1.93;;;5.30;99.90;;;;;;4970131;28;20524;-71
2024/01/06 02:20:06;;;;;;;10.03;2.83;;;5.30;99.90;;;;;;4970248;28;20456;-71
2024/01/06 02:22:37;;;;;;;7.40;1.73;;;5.20;99.90;;;;;;4970098;28;20478;-71
2024/01/06 02:25:12;;;;;;;8.53;1.93;;;5.10;99.90;;;;;;4962661;28;20449;-71
2024/01/06 02:27:40;;;;;;;7.87;2.00;;;5.10;99.90;;;;;;4970176;28;20450;-71
2024/01/06 02:30:10;;;;;;;8.70;2.30;;;5.00;99.90;;;;;;4970031;28;20468;-70
2024/01/06 02:32:38;;;;;;;10.40;1.90;;;5.20;99.90;;;;;;4964741;28;20994;-70
2024/01/06 02:35:06;;;;;;;10.87;2.50;;;5.20;99.90;;;;;;4969899;28;20493;-70
2024/01/06 02:37:36;;;;;;;8.43;2.47;;;5.10;99.90;;;;;;4968191;28;20542;-71
2024/01/06 02:40:05;;;;;;;9.30;2.97;;;5.10;99.90;;;;;;4966007;28;20524;-71
2024/01/06 02:42:33;;;;;;;8.67;2.53;;;5.10;99.90;;;;;;4970129;28;20567;-71
2024/01/06 02:45:01;;;;;;;8.90;1.87;;;5.10;99.90;;;;;;4970251;28;20999;-71
2024/01/06 02:47:29;;;;;;;8.97;2.23;;;5.10;99.90;;;;;;4969908;28;20503;-71
2024/01/06 02:49:57;;;;;;;10.70;2.13;;;5.10;99.90;;;;;;4969716;28;20933;-71
2024/01/06 02:52:25;;;;;;;15.77;2.07;;;5.10;99.90;;;;;;4962427;28;21308;-71
2024/01/06 02:54:54;;;;;;;7.97;1.67;;;5.10;99.90;;;;;;4960956;28;20612;-71
2024/01/06 02:57:22;;;;;;;8.80;1.70;;;5.10;99.90;;;;;;4964526;28;20556;-71
2024/01/06 02:59:50;;;;;;;12.47;2.53;;;5.20;99.90;;;;;;4969440;28;20508;-71
2024/01/06 03:02:18;;;;;;;9.87;1.60;;;5.20;99.90;;;;;;4969037;28;20470;-71
2024/01/06 03:04:46;;;;;;;8.30;1.40;;;5.30;99.90;;;;;;4969550;28;20546;-72
2024/01/06 03:07:14;;;;;;;7.77;1.60;;;5.40;99.90;;;;;;4968388;28;20455;-71
2024/01/06 03:09:42;;;;;;;10.00;1.97;;;5.40;99.90;;;;;;4962708;28;20602;-71
2024/01/06 03:12:11;;;;;;;9.80;1.77;;;5.40;99.90;;;;;;4969235;28;20487;-71
2024/01/06 03:14:39;;;;;;;10.13;1.40;;;5.30;99.90;;;;;;4969140;28;20457;-71
2024/01/06 03:17:10;;;;;;;7.27;1.37;;;5.40;99.90;;;;;;4969245;28;20805;-71
2024/01/06 03:19:38;;;;;;;7.13;1.30;;;5.30;99.90;;;;;;4965882;28;20453;-72
2024/01/06 03:22:06;;;;;;;8.33;1.40;;;5.30;99.90;;;;;;4965274;28;20900;-72
2024/01/06 03:24:34;;;;;;;9.50;1.70;;;5.40;99.90;;;;;;4966449;28;20468;-72
2024/01/06 03:27:02;;;;;;;7.50;1.30;;;5.40;99.90;;;;;;4960388;28;20448;-72
2024/01/06 03:29:31;;;;;;;7.27;1.20;;;5.40;99.90;;;;;;4968917;28;20458;-71
2024/01/06 03:31:59;;;;;;;10.90;1.40;;;5.30;99.90;;;;;;4968000;28;20475;-72
2024/01/06 03:34:27;;;;;;;6.77;1.37;;;5.30;99.90;;;;;;4968946;28;20452;-71
2024/01/06 03:36:55;;;;;;;7.67;1.27;;;5.30;99.90;;;;;;4968885;28;20551;-72
2024/01/06 03:39:23;;;;;;;10.00;1.63;;;5.20;99.90;;;;;;4968888;28;20458;-72
2024/01/06 03:41:51;;;;;;;10.17;1.50;;;5.20;99.90;;;;;;4964153;28;20476;-71
2024/01/06 03:44:19;;;;;;;7.80;1.30;;;5.10;99.90;;;;;;4969048;28;20848;-72
2024/01/06 03:46:48;;;;;;;6.83;1.33;;;5.20;99.90;;;;;;4968877;28;20448;-72
2024/01/06 03:49:18;;;;;;;11.00;1.47;;;5.20;99.90;;;;;;4968892;28;20524;-72
2024/01/06 03:51:46;;;;;;;8.83;2.07;;;5.20;99.90;;;;;;4957238;28;20543;-71
2024/01/06 03:54:14;;;;;;;9.40;1.70;;;5.30;99.90;;;;;;4957897;28;20456;-71
2024/01/06 03:56:42;;;;;;;7.80;1.30;;;5.30;99.90;;;;;;4968828;28;20526;-71
2024/01/06 03:59:10;;;;;;;7.50;1.20;;;5.30;99.90;;;;;;4955803;28;20522;-71
2024/01/06 04:01:38;;;;;;;9.30;1.50;;;5.30;99.90;;;;;;4965071;28;20533;-71
2024/01/06 04:04:08;;;;;;;9.00;1.27;;;5.20;99.90;;;;;;4966684;28;20465;-72
2024/01/06 04:06:36;;;;;;;8.30;1.27;;;5.20;99.90;;;;;;4961397;28;20456;-71
2024/01/06 04:09:05;;;;;;;7.20;1.90;;;5.10;99.90;;;;;;4969586;28;20542;-73
2024/01/06 04:11:33;;;;;;;8.50;1.60;;;5.20;99.90;;;;;;4969147;28;20509;-71
2024/01/06 04:14:01;;;;;;;9.07;1.40;;;5.30;99.90;;;;;;4969072;28;20539;-71
2024/01/06 04:16:29;;;;;;;8.40;1.43;;;5.20;99.90;;;;;;4969081;28;20500;-72
2024/01/06 04:18:57;;;;;;;10.23;1.27;;;5.30;99.90;;;;;;4967961;28;20520;-71
2024/01/06 04:21:26;;;;;;;6.50;1.00;;;5.30;99.90;;;;;;4967754;28;20473;-71
2024/01/06 04:23:55;;;;;;;8.90;1.63;;;5.20;99.90;;;;;;4960280;28;20539;-72
2024/01/06 04:26:23;;;;;;;9.03;1.80;;;5.10;99.90;;;;;;4968232;28;20640;-72
2024/01/06 04:28:51;;;;;;;9.90;1.70;;;5.00;99.90;;;;;;4968112;28;20947;-72
2024/01/06 04:31:19;;;;;;;8.03;1.70;;;5.00;99.90;;;;;;4966344;28;20454;-71
2024/01/06 04:33:47;;;;;;;7.83;1.80;;;4.90;99.90;;;;;;4967942;28;20486;-72
2024/01/06 04:36:16;;;;;;;8.97;1.63;;;4.80;99.90;;;;;;4968056;28;20969;-71
2024/01/06 04:38:45;;;;;;;6.20;1.07;;;4.90;99.90;;;;;;4965832;28;21247;-72
2024/01/06 04:41:13;;;;;;;7.80;1.40;;;4.90;99.90;;;;;;4964503;28;20470;-71
2024/01/06 04:43:41;;;;;;;9.07;1.30;;;4.80;99.90;;;;;;4967660;28;20478;-72
2024/01/06 04:46:09;;;;;;;6.60;1.13;;;4.80;99.90;;;;;;4965915;28;21121;-72
2024/01/06 04:48:37;;;;;;;10.70;1.30;;;4.80;99.90;;;;;;4959497;28;20519;-71
2024/01/06 04:51:06;;;;;;;7.43;1.43;;;4.90;99.90;;;;;;4967535;28;20958;-71
2024/01/06 04:53:33;;;;;;;9.10;1.20;;;4.80;99.90;;;;;;4967442;28;20478;-71
2024/01/06 04:56:03;;;;;;;8.40;1.50;;;4.90;99.90;;;;;;4967473;28;20552;-71
2024/01/06 04:58:31;;;;;;;8.47;1.50;;;4.80;99.90;;;;;;4967115;28;20473;-71
2024/01/06 05:00:59;;;;;;;8.27;1.73;;;4.80;99.90;;;;;;4967053;28;20459;-71
2024/01/06 05:03:27;;;;;;;7.27;1.40;;;4.80;99.90;;;;;;4966215;28;20470;-72
2024/01/06 05:05:55;;;;;;;7.33;1.30;;;4.70;99.90;;;;;;4967504;28;20474;-72
2024/01/06 05:08:24;;;;;;;6.80;1.50;;;4.80;99.90;;;;;;4967152;28;20455;-70
2024/01/06 05:10:53;;;;;;;6.87;1.13;;;4.90;99.90;;;;;;4967252;28;20453;-72
2024/01/06 05:13:23;;;;;;;11.37;1.70;;;4.80;99.90;;;;;;4966902;28;21019;-71
2024/01/06 05:15:51;;;;;;;7.83;1.40;;;4.80;99.90;;;;;;4967222;28;20507;-72
2024/01/06 05:18:19;;;;;;;9.87;2.70;;;4.80;99.90;;;;;;4965214;28;20466;-71
2024/01/06 05:20:47;;;;;;;8.63;1.33;;;4.90;99.90;;;;;;4967163;28;20461;-71
2024/01/06 05:23:15;;;;;;;8.70;1.43;;;4.90;99.90;;;;;;4966847;28;20471;-72
2024/01/06 05:25:43;;;;;;;9.53;1.23;;;4.90;99.90;;;;;;4967104;28;20456;-71
2024/01/06 05:28:11;;;;;;;7.60;1.60;;;4.80;99.90;;;;;;4966689;28;20856;-70
2024/01/06 05:30:40;;;;;;;7.10;1.50;;;4.90;99.90;;;;;;4966554;28;20450;-71
2024/01/06 05:33:12;;;;;;;9.43;1.33;;;4.90;99.90;;;;;;4966605;28;20471;-70
2024/01/06 05:35:42;;;;;;;8.53;1.40;;;4.80;99.90;;;;;;4965354;28;20492;-71
2024/01/06 05:38:10;;;;;;;9.43;1.50;;;4.80;99.90;;;;;;4958485;28;20455;-71
2024/01/06 05:40:38;;;;;;;7.63;1.20;;;4.70;99.90;;;;;;4966191;28;20979;-71
2024/01/06 05:43:06;;;;;;;7.60;1.23;;;4.70;99.90;;;;;;4967120;28;20481;-71
2024/01/06 05:45:34;;;;;;;12.03;1.37;;;4.70;99.90;;;;;;4964880;28;20536;-71
2024/01/06 05:48:04;;;;;;;8.63;1.80;;;4.70;99.90;;;;;;4966944;28;20519;-71
2024/01/06 05:50:32;;;;;;;9.23;1.70;;;4.60;99.90;;;;;;4984889;28;21003;-71
2024/01/06 05:53:00;;;;;;;8.23;1.53;;;4.60;99.90;;;;;;4968762;28;20480;-71
2024/01/06 05:55:28;;;;;;;9.17;1.93;;;4.50;99.90;;;;;;4969430;28;20463;-71
2024/01/06 05:57:56;;;;;;;7.80;1.70;;;4.50;99.90;;;;;;4978023;28;21081;-70
2024/01/06 06:00:24;;;;;;;6.90;1.40;;;4.50;99.90;;;;;;4980383;28;20456;-71
2024/01/06 06:02:51;;;;;;;8.30;1.60;;;4.50;99.90;;;;;;4970564;28;20537;-71
2024/01/06 06:05:21;;;;;;;10.13;1.87;;;4.60;99.90;;;;;;4970305;28;20508;-72
2024/01/06 06:07:49;;;;;;;8.90;1.80;;;4.50;99.90;;;;;;4966728;28;20446;-71
2024/01/06 06:10:18;;;;;;;7.30;1.70;;;4.60;99.90;;;;;;4959364;28;20551;-71
2024/01/06 06:12:46;;;;;;;7.70;1.50;;;4.60;99.90;;;;;;4982112;28;20560;-70
2024/01/06 06:15:14;;;;;;;8.07;1.73;;;4.60;99.90;;;;;;4981853;28;20456;-71
2024/01/06 06:17:42;;;;;;;11.50;1.67;;;4.70;99.90;;;;;;4970223;28;20491;-70
2024/01/06 06:20:10;;;;;;;7.40;1.80;;;4.70;99.90;;;;;;4971036;28;20458;-70
2024/01/06 06:22:40;;;;;;;7.70;1.80;;;4.60;99.90;;;;;;4971661;28;20564;-70
2024/01/06 06:25:08;;;;;;;7.60;1.73;;;4.60;99.90;;;;;;4964047;28;20449;-70
2024/01/06 06:27:39;;;;;;;7.10;1.60;;;4.50;99.90;;;;;;4972719;28;20452;-71
2024/01/06 06:30:08;;;;;;;10.43;2.00;;;4.50;99.90;;;;;;4971615;28;20450;-70
2024/01/06 06:32:36;;;;;;;7.43;1.87;;;4.50;99.90;;;;;;4971051;28;20529;-70
2024/01/06 06:35:05;;;;;;;6.90;1.40;;;4.50;99.90;;;;;;4970925;28;20540;-71
2024/01/06 06:37:33;;;;;;;7.67;1.70;;;4.60;99.90;;;;;;4970501;28;20580;-69
2024/01/06 06:40:03;;;;;;;6.83;1.50;;;4.70;99.90;;;;;;4963999;28;20443;-70
2024/01/06 06:42:31;;;;;;;9.77;1.90;;;4.70;99.90;;;;;;4969743;28;20969;-71
2024/01/06 06:44:59;;;;;;;6.53;1.40;;;4.70;99.90;;;;;;4970726;28;21128;-70
2024/01/06 06:47:27;;;;;;;8.13;1.80;;;4.70;99.90;;;;;;4970297;28;21021;-71
2024/01/06 06:49:55;;;;;;;7.60;1.70;;;4.60;99.90;;;;;;4970660;28;20533;-71
2024/01/06 06:52:23;;;;;;;8.20;1.77;;;4.70;99.90;;;;;;4970220;28;20483;-71
2024/01/06 06:54:52;;;;;;;10.13;1.60;;;4.80;99.90;;;;;;4970643;28;20454;-70
2024/01/06 06:57:22;;;;;;;7.60;1.87;;;4.90;99.90;;;;;;4970890;28;20496;-71
2024/01/06 06:59:50;;;;;;;9.03;1.80;;;4.90;99.90;;;;;;4970467;28;20454;-71
2024/01/06 07:02:18;;;;;;;9.70;1.77;;;5.00;99.90;;;;;;4969464;28;20533;-71
2024/01/06 07:04:46;;;;;;;8.00;1.70;;;5.10;99.90;;;;;;4970825;28;21321;-72
2024/01/06 07:07:14;;;;;;;8.50;1.43;;;5.10;99.90;;;;;;4973061;28;20533;-71
2024/01/06 07:09:42;;;;;;;11.83;1.60;;;5.00;99.90;;;;;;4984938;28;20452;-71
2024/01/06 07:12:10;;;;;;;8.50;1.80;;;5.00;99.90;;;;;;4968783;28;20482;-71
2024/01/06 07:14:39;;;;;;;10.33;2.47;;;5.00;99.90;;;;;;4970354;28;20440;-71
2024/01/06 07:17:08;;;;;;;8.87;2.30;;;5.00;99.90;;;;;;4969875;28;20525;-71
2024/01/06 07:19:37;;;;;;;11.80;2.10;;;4.90;99.90;;;;;;4969965;28;20480;-71
2024/01/06 07:22:05;;;;;;;12.53;1.87;;;5.00;99.90;;;;;;4970186;28;20470;-71
2024/01/06 07:24:36;;;;;;;7.70;1.70;;;5.00;99.90;;;;;;4969976;28;20482;-71
2024/01/06 07:27:04;;;;;;;7.70;1.83;;;4.90;99.90;;;;;;4963966;28;20461;-71
2024/01/06 07:29:32;;;;;;;7.80;1.83;;;5.00;99.90;;;;;;4969862;28;20462;-70
2024/01/06 07:32:01;;;;;;;9.73;2.10;;;5.10;99.90;;;;;;4969569;28;20521;-70
2024/01/06 07:34:29;;;;;;;7.93;2.20;;;5.10;99.90;;;;;;4969685;28;20561;-70
2024/01/06 07:36:58;;;;;;;9.83;2.30;;;5.20;99.90;;;;;;4969802;28;20543;-71
2024/01/06 07:39:26;;;;;;;9.33;2.00;;;5.20;99.90;;;;;;4969684;28;20540;-70
2024/01/06 07:41:54;;;;;;;12.70;2.17;;;5.20;99.90;;;;;;4968095;28;20811;-71
2024/01/06 07:44:24;;;;;;;8.23;1.80;;;5.30;99.90;;;;;;4969683;28;20458;-71
2024/01/06 07:46:53;;;;;;;10.03;2.10;;;5.30;99.90;;;;;;4969449;28;20449;-70
2024/01/06 07:49:22;;;;;;;7.80;1.93;;;5.50;99.90;;;;;;4968859;28;20467;-70
2024/01/06 07:51:50;;;;;;;8.77;2.03;;;5.60;99.90;;;;;;4966973;28;20797;-71
2024/01/06 07:54:18;;;;;;;7.23;1.93;;;5.60;99.90;;;;;;4988673;28;20453;-71
2024/01/06 07:56:46;;;;;;;7.17;1.50;;;5.60;99.90;;;;;;4969699;28;20861;-71
2024/01/06 07:59:15;;;;;;;8.33;1.63;;;5.60;99.90;;;;;;4975232;28;20571;-71
2024/01/06 08:01:43;;;;;;;8.50;1.93;;;5.70;99.90;;;;;;4985205;28;20444;-70
2024/01/06 08:04:11;;;;;;;8.13;1.47;;;5.70;99.90;;;;;;4970091;28;20533;-71
2024/01/06 08:06:41;;;;;;;7.60;1.60;;;5.70;99.90;;;;;;4970092;28;20463;-71
2024/01/06 08:09:09;;;;;;;8.00;2.30;;;5.70;99.90;;;;;;4969803;28;20491;-70
2024/01/06 08:11:37;;;;;;;7.67;1.57;;;5.80;99.90;;;;;;4966867;28;20476;-71
2024/01/06 08:14:06;;;;;;;7.37;1.90;;;5.80;99.90;;;;;;4984048;28;20468;-71
2024/01/06 08:16:34;;;;;;;7.53;1.77;;;5.70;99.90;;;;;;4969172;28;20454;-70
2024/01/06 08:19:03;;;;;;;8.50;1.47;;;5.80;99.90;;;;;;4969127;28;20653;-71
2024/01/06 08:21:31;;;;;;;8.27;1.77;;;5.80;99.90;;;;;;4968804;28;21095;-71
2024/01/06 08:24:00;;;;;;;6.70;1.50;;;5.80;99.90;;;;;;4969244;28;20528;-70
2024/01/06 08:26:28;;;;;;;7.50;2.03;;;5.80;99.90;;;;;;4968950;28;20492;-71
2024/01/06 08:28:56;;;;;;;7.63;1.50;;;5.90;99.90;;;;;;4979436;28;20453;-72
2024/01/06 08:31:24;;;;;;;7.50;1.70;;;5.80;99.90;;;;;;4983403;28;20476;-72
2024/01/06 08:33:53;;;;;;;9.33;1.87;;;5.80;99.90;;;;;;4968972;28;20502;-72
2024/01/06 08:36:21;;;;;;;6.80;1.30;;;5.90;99.90;;;;;;4960851;28;20459;-72
2024/01/06 08:38:49;;;;;;;7.70;1.47;;;6.00;99.90;;;;;;4967263;28;20921;-72
2024/01/06 08:41:19;;;;;;;7.10;1.60;;;6.10;99.90;;;;;;4968801;28;20456;-72
2024/01/06 08:43:47;;;;;;;9.60;1.60;;;6.10;99.90;;;;;;4961445;28;21263;-72
2024/01/06 08:46:15;;;;;;;7.20;1.23;;;6.10;99.90;;;;;;4978809;28;20453;-72
2024/01/06 08:48:43;;;;;;;8.13;1.50;;;6.30;99.90;;;;;;4984745;28;20820;-72
2024/01/06 08:51:11;;;;;;;9.93;1.93;;;6.30;99.90;;;;;;4967013;28;20452;-72
2024/01/06 08:53:39;;;;;;;7.30;1.63;;;6.40;99.90;;;;;;4967856;28;20478;-70
2024/01/06 08:56:07;;;;;;;7.37;1.50;;;6.50;99.90;;;;;;4968865;28;20457;-71
2024/01/06 08:58:36;;;;;;;8.47;1.63;;;6.60;99.90;;;;;;4968319;28;20483;-71
2024/01/06 09:01:05;;;;;;;7.50;2.10;;;6.60;99.90;;;;;;4968256;28;20466;-71
2024/01/06 09:03:33;;;;;;;6.97;1.93;;;6.60;99.90;;;;;;4968183;28;21201;-72
2024/01/06 09:06:01;;;;;;;8.90;2.30;;;6.60;99.90;;;;;;4968515;28;20520;-71
2024/01/06 09:08:29;;;;;;;7.53;2.00;;;6.60;99.90;;;;;;4982616;28;21120;-71
2024/01/06 09:10:57;;;;;;;8.93;2.17;;;6.60;99.90;;;;;;4968063;28;20533;-69
2024/01/06 09:13:25;;;;;;;8.20;2.07;;;6.60;99.90;;;;;;4967885;28;20553;-69
2024/01/06 09:15:55;;;;;;;7.50;2.33;;;6.70;99.90;;;;;;4967857;28;20460;-67
2024/01/06 09:18:26;;;;;;;8.90;2.67;;;6.80;99.90;;;;;;4967638;28;20496;-70
2024/01/06 09:20:55;;;;;;;9.43;3.07;;;6.80;99.90;;;;;;4967851;28;20462;-68
2024/01/06 09:23:24;;;;;;;7.27;2.13;;;6.90;99.90;;;;;;4967805;28;20475;-68
2024/01/06 09:25:52;;;;;;;12.00;2.60;;;6.90;99.90;;;;;;4965916;28;20857;-68
2024/01/06 09:28:21;;;;;;;10.73;2.77;;;6.90;99.90;;;;;;4967443;28;20455;-68
2024/01/06 09:30:50;;;;;;;8.73;2.73;;;6.90;99.90;;;;;;4967869;28;20458;-69
2024/01/06 09:33:20;;;;;;;7.83;2.40;;;7.00;99.90;;;;;;4968128;28;20484;-68
2024/01/06 09:35:48;;;;;;;7.43;2.43;;;7.10;99.90;;;;;;4968113;28;20450;-68
2024/01/06 09:38:17;;;;;;;7.70;2.20;;;7.10;99.90;;;;;;4967637;28;20923;-71
2024/01/06 09:40:45;;;;;;;9.37;2.30;;;7.20;99.90;;;;;;4968198;28;20454;-68
2024/01/06 09:43:13;;;;;;;8.03;2.40;;;7.20;99.90;;;;;;4967688;28;20475;-68
2024/01/06 09:45:42;;;;;;;6.93;1.97;;;7.30;99.90;;;;;;4967487;28;20511;-68
2024/01/06 09:48:12;;;;;;;7.30;1.90;;;7.20;99.90;;;;;;4967733;28;20447;-68
2024/01/06 09:50:44;;;;;;;9.10;2.40;;;7.10;99.90;;;;;;4967473;28;20545;-69
2024/01/06 09:53:13;;;;;;;8.83;2.50;;;7.20;99.90;;;;;;4967901;28;20484;-68
2024/01/06 09:55:43;;;;;;;9.00;2.00;;;7.20;99.90;;;;;;4960494;28;20482;-68
2024/01/06 09:58:11;;;;;;;7.37;2.00;;;7.30;99.90;;;;;;4968428;28;20455;-69
2024/01/06 10:00:39;;;;;;;9.23;1.70;;;7.30;99.90;;;;;;4967439;28;20469;-69
2024/01/06 10:03:09;;;;;;;7.53;2.27;;;7.30;99.90;;;;;;4962991;28;20486;-69
2024/01/06 10:05:38;;;;;;;7.23;1.90;;;7.30;99.90;;;;;;4966695;28;20983;-68
2024/01/06 10:08:08;;;;;;;7.60;2.30;;;7.20;99.90;;;;;;4964576;28;21196;-70
2024/01/06 10:10:37;;;;;;;7.73;2.20;;;7.20;99.90;;;;;;4971686;28;21039;-69
2024/01/06 10:13:05;;;;;;;8.00;2.60;;;7.20;99.90;;;;;;4973200;28;20504;-68
2024/01/06 10:15:36;;;;;;;7.30;2.23;;;7.20;99.90;;;;;;4971575;28;21100;-69
2024/01/06 10:18:05;;;;;;;9.33;2.87;;;7.10;99.90;;;;;;4972700;28;20457;-69
2024/01/06 10:20:33;;;;;;;7.60;2.67;;;7.10;99.90;;;;;;4972445;28;20522;-69
2024/01/06 10:23:07;;;;;;;7.77;2.83;;;7.10;99.90;;;;;;4974374;28;20470;-69
2024/01/06 10:25:36;;;;;;;9.40;3.13;;;7.20;99.90;;;;;;4971711;28;20929;-69
2024/01/06 10:28:05;;;;;;;8.10;2.60;;;7.10;99.90;;;;;;4969850;28;20452;-68
2024/01/06 10:30:33;;;;;;;8.20;2.77;;;6.90;99.90;;;;;;4972695;28;21163;-69
2024/01/06 10:33:02;;;;;;;7.93;2.67;;;6.70;99.90;;;;;;4971830;28;20556;-68
2024/01/06 10:35:30;;;;;;;7.90;2.63;;;6.60;99.90;;;;;;4974522;28;20474;-68
2024/01/06 10:37:58;;;;;;;8.20;2.50;;;6.50;99.90;;;;;;4974358;28;20462;-69
2024/01/06 10:40:27;;;;;;;7.60;2.20;;;6.40;99.90;;;;;;4974461;28;20912;-68
2024/01/06 10:42:57;;;;;;;7.67;2.47;;;6.30;99.90;;;;;;4976903;28;20906;-68
2024/01/06 10:45:28;;;;;;;7.90;2.60;;;6.40;99.90;;;;;;4978275;28;20480;-68
2024/01/06 10:47:56;;;;;;;7.60;2.53;;;6.30;99.90;;;;;;4978969;28;20456;-68
2024/01/06 10:50:24;;;;;;;7.17;2.10;;;6.20;99.90;;;;;;4977034;28;20447;-68
2024/01/06 10:52:54;;;;;;;8.00;2.30;;;6.20;99.90;;;;;;4979217;28;20466;-68
2024/01/06 10:55:23;;;;;;;8.63;2.20;;;6.30;99.90;;;;;;4978822;28;20500;-68
2024/01/06 10:57:53;;;;;;;7.77;2.10;;;6.30;99.90;;;;;;4984116;28;21228;-68
2024/01/06 11:00:22;;;;;;;7.40;1.90;;;6.20;99.90;;;;;;4970833;28;20551;-68
2024/01/06 11:02:53;;;;;;;6.93;1.80;;;6.20;99.90;;;;;;4982217;28;20467;-66
2024/01/06 11:05:22;;;;;;;8.93;2.47;;;6.20;99.90;;;;;;4982217;28;20452;-67
2024/01/06 11:07:52;;;;;;;7.37;2.17;;;6.20;99.90;;;;;;4975298;28;20815;-67
2024/01/06 11:10:22;;;;;;;9.33;2.93;;;6.20;99.90;;;;;;4969738;28;20913;-68
2024/01/06 11:13:13;;;;;;;8.47;2.87;;;6.20;99.90;;;;;;4959015;28;20510;-68
2024/01/06 11:15:45;;;;;;;8.27;2.70;;;6.30;99.90;;;;;;4984618;28;20455;-68
2024/01/06 11:18:37;;;;;;;8.37;2.50;;;6.30;99.90;;;;;;4973037;28;20452;-68
2024/01/06 11:21:18;;;;;;;9.03;2.90;;;6.40;99.90;;;;;;4965116;28;20581;-69
2024/01/06 11:23:47;;;;;;;8.03;2.77;;;6.50;99.90;;;;;;4969637;28;20553;-67
2024/01/06 11:26:15;;;;;;;9.93;3.43;;;6.50;99.90;;;;;;4969314;28;20453;-68
2024/01/06 11:28:49;;;;;;;8.63;3.10;;;6.60;99.90;;;;;;4966567;28;20466;-67
2024/01/06 11:31:19;;;;;;;8.73;3.00;;;6.70;99.90;;;;;;4967845;28;20508;-67
2024/01/06 11:33:51;;;;;;;10.07;2.90;;;6.70;99.90;;;;;;4965823;28;20465;-68
2024/01/06 11:36:22;;;;;;;8.87;3.40;;;6.60;99.90;;;;;;4969043;28;20461;-68
2024/01/06 11:38:52;;;;;;;8.37;2.63;;;6.50;99.90;;;;;;4969924;28;20462;-67
2024/01/06 11:41:49;;;;;;;10.30;3.67;;;6.50;99.90;;;;;;4977413;28;20480;-66
2024/01/06 11:44:21;;;;;;;7.80;2.57;;;6.40;99.90;;;;;;4966626;28;20458;-67
2024/01/06 11:46:50;;;;;;;8.80;3.17;;;6.40;99.90;;;;;;4979517;28;20435;-67
2024/01/06 11:49:21;;;;;;;9.40;3.63;;;6.40;99.90;;;;;;4972122;28;20474;-67
2024/01/06 11:51:50;;;;;;;10.03;3.57;;;6.50;99.90;;;;;;4978582;28;20436;-67
2024/01/06 11:54:18;;;;;;;8.83;3.47;;;6.60;99.90;;;;;;4981490;28;20448;-67
2024/01/06 11:56:49;;;;;;;9.00;3.17;;;6.70;99.90;;;;;;4969852;28;20460;-67
2024/01/06 11:59:17;;;;;;;9.37;3.67;;;6.80;99.90;;;;;;4974603;28;20446;-67
2024/01/06 12:01:47;;;;;;;9.47;3.17;;;6.80;99.90;;;;;;4973870;28;20912;-64
2024/01/06 12:04:16;;;;;;;9.87;4.10;;;6.80;99.90;;;;;;4968717;28;20509;-67
2024/01/06 12:06:44;;;;;;;11.37;4.10;;;6.80;99.90;;;;;;4970127;28;21056;-67
2024/01/06 12:09:15;;;;;;;11.10;4.67;;;6.90;99.90;;;;;;4977256;28;20537;-67
2024/01/06 12:11:44;;;;;;;10.90;4.10;;;7.00;99.90;;;;;;4977233;28;20454;-67
2024/01/06 12:14:12;;;;;;;10.40;4.10;;;7.10;99.90;;;;;;4976634;28;20455;-66
2024/01/06 12:16:41;;;;;;;8.27;2.83;;;7.10;99.90;;;;;;4975719;28;20943;-66
2024/01/06 12:19:10;;;;;;;9.37;3.80;;;7.10;99.90;;;;;;4977888;28;20501;-69
2024/01/06 12:21:39;;;;;;;8.80;3.37;;;7.00;99.90;;;;;;4976148;28;21126;-66
2024/01/06 12:24:25;;;;;;;9.10;4.60;;;6.90;99.90;;;;;;4974186;28;20481;-68
2024/01/06 12:26:53;;;;;;;9.33;3.83;;;6.70;99.90;;;;;;4967018;28;20458;-68
2024/01/06 12:29:21;;;;;;;9.67;3.70;;;6.60;99.90;;;;;;4976076;28;20458;-68
2024/01/06 12:31:49;;;;;;;11.30;4.00;;;6.50;99.90;;;;;;4970625;28;21161;-68
2024/01/06 12:34:19;;;;;;;9.60;3.40;;;6.40;99.90;;;;;;4968752;28;20461;-70
2024/01/06 12:36:47;;;;;;;10.73;4.43;;;6.40;99.90;;;;;;4969132;28;20453;-67
2024/01/06 12:39:16;;;;;;;10.40;4.47;;;6.50;99.90;;;;;;4968006;28;20458;-69
2024/01/06 12:41:45;;;;;;;10.57;4.37;;;6.40;99.90;;;;;;4967287;28;20941;-68
2024/01/06 12:44:13;;;;;;;11.00;5.73;;;6.30;99.90;;;;;;4973136;28;20484;-69
2024/01/06 12:46:41;;;;;;;11.53;4.70;;;6.30;99.90;;;;;;4976039;28;20864;-69
2024/01/06 12:49:09;;;;;;;12.13;5.57;;;6.40;99.90;;;;;;4973714;28;20444;-68
2024/01/06 12:51:39;;;;;;;9.90;4.33;;;6.40;99.90;;;;;;4977269;28;20449;-68
2024/01/06 12:54:07;;;;;;;10.37;4.60;;;6.30;99.90;;;;;;4979537;28;20476;-68
2024/01/06 12:56:35;;;;;;;10.17;4.70;;;6.30;99.90;;;;;;4981325;28;20449;-68
2024/01/06 12:59:04;;;;;;;10.67;3.97;;;6.30;99.90;;;;;;4979172;28;20456;-68
2024/01/06 13:01:32;;;;;;;9.83;4.43;;;6.20;99.90;;;;;;4976075;28;21348;-68
2024/01/06 13:04:01;;;;;;;11.83;5.17;;;6.10;99.90;;;;;;4973804;28;20495;-70